createdAt,value
2023-01-13T00:00:58.950Z,2.17
2023-01-13T00:03:26.474Z,2.30
2023-01-13T00:05:53.662Z,2.00
2023-01-13T00:08:20.893Z,2.17
2023-01-13T00:10:48.541Z,2.13
2023-01-13T00:13:15.839Z,2.80
2023-01-13T00:15:43.277Z,2.30
2023-01-13T00:18:10.536Z,1.90
2023-01-13T00:20:37.749Z,2.27
2023-01-13T00:23:04.962Z,1.77
2023-01-13T00:25:32.133Z,2.17
2023-01-13T00:27:59.305Z,1.97
2023-01-13T00:30:27.710Z,1.87
2023-01-13T00:32:54.980Z,1.87
2023-01-13T00:35:22.178Z,1.73
2023-01-13T00:37:49.363Z,1.63
2023-01-13T00:40:16.549Z,2.13
2023-01-13T00:43:02.324Z,1.63
2023-01-13T00:45:29.600Z,2.10
2023-01-13T00:47:56.795Z,2.53
2023-01-13T00:50:24.235Z,1.43
2023-01-13T00:52:51.512Z,1.83
2023-01-13T00:55:18.703Z,1.80
2023-01-13T00:57:45.853Z,1.80
2023-01-13T01:00:13.238Z,1.33
2023-01-13T01:02:40.475Z,1.50
2023-01-13T01:05:08.039Z,1.27
2023-01-13T01:07:35.236Z,1.77
2023-01-13T01:10:02.776Z,1.40
2023-01-13T01:12:29.925Z,1.63
2023-01-13T01:14:57.171Z,1.47
2023-01-13T01:17:24.356Z,1.37
2023-01-13T01:19:51.514Z,1.77
2023-01-13T01:22:18.711Z,1.43
2023-01-13T01:24:46.003Z,1.97
2023-01-13T01:27:13.158Z,1.80
2023-01-13T01:29:40.306Z,1.80
2023-01-13T01:32:07.499Z,1.63
2023-01-13T01:34:35.704Z,2.00
2023-01-13T01:37:02.942Z,1.53
2023-01-13T01:39:30.172Z,2.10
2023-01-13T01:42:16.242Z,1.80
2023-01-13T01:44:43.434Z,1.60
2023-01-13T01:47:12.907Z,1.53
2023-01-13T01:49:40.379Z,2.17
2023-01-13T01:52:10.078Z,2.10
2023-01-13T01:54:43.357Z,2.10
2023-01-13T01:57:12.860Z,2.10
2023-01-13T01:59:40.255Z,2.10
2023-01-13T02:02:07.696Z,2.10
2023-01-13T02:04:36.888Z,2.13
2023-01-13T02:07:04.553Z,2.33
2023-01-13T02:09:31.857Z,1.80
2023-01-13T02:12:18.012Z,2.20
2023-01-13T02:14:45.853Z,2.30
2023-01-13T02:17:16.521Z,2.07
2023-01-13T02:19:59.233Z,2.20
2023-01-13T02:22:26.424Z,2.03
2023-01-13T02:25:03.092Z,2.13
2023-01-13T02:27:37.086Z,2.00
2023-01-13T02:30:26.124Z,2.10
2023-01-13T02:32:59.578Z,2.10
2023-01-13T02:35:45.199Z,2.20
2023-01-13T02:38:13.999Z,2.10
2023-01-13T02:40:44.390Z,2.10
2023-01-13T02:43:34.297Z,2.17
2023-01-13T02:46:08.970Z,1.90
2023-01-13T02:48:37.562Z,2.17
2023-01-13T02:51:06.832Z,1.83
2023-01-13T02:53:42.515Z,1.70
2023-01-13T02:56:10.640Z,2.00
2023-01-13T02:58:39.694Z,1.73
2023-01-13T03:01:06.969Z,2.00
2023-01-13T03:03:34.235Z,1.90
2023-01-13T03:06:09.156Z,1.73
2023-01-13T03:08:43.065Z,1.90
2023-01-13T03:11:12.484Z,2.30
2023-01-13T03:13:56.376Z,2.10
2023-01-13T03:16:24.030Z,2.40
2023-01-13T03:19:00.266Z,2.13
2023-01-13T03:21:34.348Z,2.20
2023-01-13T03:24:04.349Z,2.63
2023-01-13T03:26:46.150Z,1.77
2023-01-13T03:29:21.336Z,2.33
2023-01-13T03:31:58.286Z,2.00
2023-01-13T03:34:31.110Z,1.70
2023-01-13T03:36:58.668Z,2.10
2023-01-13T03:39:30.418Z,1.93
2023-01-13T03:42:00.053Z,1.80
2023-01-13T03:44:35.386Z,2.00
2023-01-13T03:47:05.428Z,1.90
2023-01-13T03:49:39.677Z,1.80
2023-01-13T03:52:09.296Z,1.90
2023-01-13T03:54:40.493Z,1.90
2023-01-13T03:57:09.879Z,2.20
2023-01-13T03:59:42.164Z,2.07
2023-01-13T04:02:15.323Z,2.00
2023-01-13T04:05:03.466Z,2.33
2023-01-13T04:07:40.319Z,1.93
2023-01-13T04:10:09.923Z,1.63
2023-01-13T04:13:00.445Z,1.77
2023-01-13T04:15:29.772Z,2.03
2023-01-13T04:18:03.027Z,2.77
2023-01-13T04:20:30.176Z,4.23
2023-01-13T04:22:57.353Z,2.87
2023-01-13T04:25:24.582Z,3.70
2023-01-13T04:27:51.901Z,2.80
2023-01-13T04:30:19.137Z,1.97
2023-01-13T04:32:46.315Z,1.50
2023-01-13T04:35:13.486Z,2.33
2023-01-13T04:37:40.858Z,2.23
2023-01-13T04:40:08.493Z,4.50
2023-01-13T04:42:35.651Z,3.90
2023-01-13T04:45:02.911Z,2.80
2023-01-13T04:47:30.078Z,4.50
2023-01-13T04:49:57.287Z,3.17
2023-01-13T04:52:24.501Z,1.90
2023-01-13T04:54:51.737Z,1.83
2023-01-13T04:57:18.920Z,1.90
2023-01-13T04:59:46.144Z,1.80
2023-01-13T05:02:19.947Z,1.50
2023-01-13T05:04:48.006Z,1.40
2023-01-13T05:07:16.382Z,1.70
2023-01-13T05:09:43.613Z,1.70
2023-01-13T05:12:30.456Z,1.50
2023-01-13T05:15:16.587Z,1.43
2023-01-13T05:17:44.149Z,1.50
2023-01-13T05:20:11.721Z,1.60
2023-01-13T05:22:57.236Z,2.40
2023-01-13T05:25:25.351Z,2.33
2023-01-13T05:27:53.785Z,1.90
2023-01-13T05:30:22.124Z,1.50
2023-01-13T05:32:49.355Z,2.40
2023-01-13T05:35:17.059Z,3.07
2023-01-13T05:37:44.768Z,1.73
2023-01-13T05:40:31.752Z,1.80
2023-01-13T05:43:20.915Z,1.43
2023-01-13T05:45:51.194Z,1.73
2023-01-13T05:48:19.616Z,1.53
2023-01-13T05:50:47.456Z,1.90
2023-01-13T05:53:14.684Z,2.63
2023-01-13T05:55:42.449Z,2.20
2023-01-13T05:58:10.458Z,2.30
2023-01-13T06:00:37.652Z,1.70
2023-01-13T06:03:05.368Z,1.40
2023-01-13T06:05:32.931Z,1.70
2023-01-13T06:08:00.879Z,1.40
2023-01-13T06:10:29.255Z,1.80
2023-01-13T06:12:56.652Z,1.13
2023-01-13T06:15:24.630Z,1.40
2023-01-13T06:17:51.863Z,1.40
2023-01-13T06:20:19.249Z,1.43
2023-01-13T06:22:48.857Z,1.37
2023-01-13T06:25:34.578Z,1.50
2023-01-13T06:28:01.914Z,1.47
2023-01-13T06:30:31.057Z,1.60
2023-01-13T06:32:59.616Z,1.50
2023-01-13T06:35:29.602Z,1.20
2023-01-13T06:37:58.786Z,1.50
2023-01-13T06:40:26.162Z,1.70
2023-01-13T06:43:16.171Z,1.50
2023-01-13T06:45:57.129Z,1.80
2023-01-13T06:48:25.878Z,1.60
2023-01-13T06:50:53.057Z,2.10
2023-01-13T06:53:20.592Z,2.00
2023-01-13T06:55:47.910Z,1.80
2023-01-13T06:58:15.061Z,2.07
2023-01-13T07:00:42.406Z,1.77
2023-01-13T07:03:13.846Z,1.93
2023-01-13T07:05:41.733Z,1.80
2023-01-13T07:08:10.019Z,1.47
2023-01-13T07:10:37.545Z,1.90
2023-01-13T07:13:34.825Z,2.17
2023-01-13T07:16:03.365Z,1.60
2023-01-13T07:18:32.074Z,1.60
2023-01-13T07:21:00.612Z,1.60
2023-01-13T07:23:28.740Z,1.30
2023-01-13T07:25:59.663Z,1.60
2023-01-13T07:28:27.483Z,1.53
2023-01-13T07:30:55.093Z,1.80
2023-01-13T07:33:22.283Z,2.40
2023-01-13T07:35:49.941Z,2.23
2023-01-13T07:38:17.077Z,1.40
2023-01-13T07:40:44.202Z,1.67
2023-01-13T07:43:31.758Z,1.83
2023-01-13T07:46:06.330Z,1.70
2023-01-13T07:48:34.627Z,1.80
2023-01-13T07:51:02.786Z,1.70
2023-01-13T07:53:30.078Z,1.97
2023-01-13T07:55:57.767Z,1.83
2023-01-13T07:58:25.420Z,1.70
2023-01-13T08:00:53.341Z,1.70
2023-01-13T08:03:20.609Z,1.63
2023-01-13T08:05:48.387Z,1.50
2023-01-13T08:08:15.937Z,1.93
2023-01-13T08:10:43.150Z,1.63
2023-01-13T08:13:19.992Z,1.73
2023-01-13T08:15:51.502Z,1.70
2023-01-13T08:18:21.949Z,2.00
2023-01-13T08:20:49.588Z,1.70
2023-01-13T08:23:16.901Z,1.40
2023-01-13T08:25:44.135Z,1.60
2023-01-13T08:28:11.943Z,2.40
2023-01-13T08:30:39.267Z,2.20
2023-01-13T08:33:10.477Z,1.80
2023-01-13T08:35:38.344Z,1.80
2023-01-13T08:38:06.128Z,2.10
2023-01-13T08:40:33.929Z,2.00
2023-01-13T08:43:01.586Z,1.70
2023-01-13T08:45:28.759Z,1.80
2023-01-13T08:47:55.966Z,1.90
2023-01-13T08:50:23.129Z,1.73
2023-01-13T08:52:50.346Z,2.00
2023-01-13T08:55:17.936Z,2.10
2023-01-13T08:57:45.105Z,2.90
2023-01-13T09:00:12.786Z,3.00
2023-01-13T09:02:40.117Z,2.97
2023-01-13T09:05:08.398Z,2.93
2023-01-13T09:07:36.514Z,2.40
2023-01-13T09:10:05.006Z,2.67
2023-01-13T09:12:51.022Z,2.07
2023-01-13T09:15:18.656Z,2.40
2023-01-13T09:17:46.340Z,1.80
2023-01-13T09:20:13.863Z,1.90
2023-01-13T09:22:41.512Z,2.27
2023-01-13T09:25:09.045Z,1.90
2023-01-13T09:27:36.491Z,2.00
2023-01-13T09:30:03.768Z,2.13
2023-01-13T09:32:31.127Z,2.30
2023-01-13T09:35:01.241Z,1.90
2023-01-13T09:37:29.730Z,1.83
2023-01-13T09:39:56.941Z,1.93
2023-01-13T09:42:43.014Z,1.83
2023-01-13T09:45:14.131Z,2.30
2023-01-13T09:47:47.252Z,1.83
2023-01-13T09:50:15.758Z,2.03
2023-01-13T09:52:43.647Z,1.73
2023-01-13T09:55:15.433Z,1.80
2023-01-13T09:57:42.812Z,2.60
2023-01-13T10:00:30.291Z,2.00
2023-01-13T10:03:16.541Z,1.93
2023-01-13T10:05:45.847Z,2.00
2023-01-13T10:08:14.408Z,2.80
2023-01-13T10:10:43.692Z,3.10
2023-01-13T10:13:31.176Z,3.50
2023-01-13T10:16:06.813Z,2.30
2023-01-13T10:18:55.101Z,1.80
2023-01-13T10:21:36.062Z,1.60
2023-01-13T10:24:09.403Z,2.40
2023-01-13T10:26:48.945Z,1.87
2023-01-13T10:29:20.701Z,2.00
2023-01-13T10:31:48.132Z,2.03
2023-01-13T10:34:17.094Z,1.67
2023-01-13T10:37:07.585Z,1.93
2023-01-13T10:39:41.798Z,1.83
2023-01-13T10:42:13.943Z,2.10
2023-01-13T10:44:48.279Z,2.20
2023-01-13T10:47:21.755Z,2.20
2023-01-13T10:50:05.654Z,2.20
2023-01-13T10:52:37.567Z,2.30
2023-01-13T10:55:06.293Z,2.70
2023-01-13T10:57:37.302Z,2.50
2023-01-13T11:00:05.559Z,2.90
2023-01-13T11:02:33.969Z,2.57
2023-01-13T11:05:11.399Z,2.40
2023-01-13T11:07:46.797Z,2.10
2023-01-13T11:10:19.886Z,2.43
2023-01-13T11:12:56.194Z,2.33
2023-01-13T11:15:25.681Z,2.13
2023-01-13T11:18:00.403Z,2.90
2023-01-13T11:20:41.370Z,2.33
2023-01-13T11:23:28.797Z,2.10
2023-01-13T11:25:59.386Z,2.37
2023-01-13T11:28:41.934Z,2.47
2023-01-13T11:31:12.396Z,2.03
2023-01-13T11:33:42.472Z,2.33
2023-01-13T11:36:09.731Z,2.40
2023-01-13T11:38:52.200Z,2.33
2023-01-13T11:41:38.094Z,2.00
2023-01-13T11:44:08.495Z,1.93
2023-01-13T11:46:35.930Z,2.20
2023-01-13T11:49:03.944Z,2.73
2023-01-13T11:51:34.843Z,2.17
2023-01-13T11:54:17.417Z,2.60
2023-01-13T11:56:47.795Z,2.30
2023-01-13T11:59:14.931Z,2.50
2023-01-13T12:01:45.011Z,2.70
2023-01-13T12:04:30.479Z,2.50
2023-01-13T12:07:07.345Z,2.47
2023-01-13T12:09:44.928Z,2.30
2023-01-13T12:12:22.220Z,2.60
2023-01-13T12:14:49.453Z,2.57
2023-01-13T12:17:23.654Z,3.03
2023-01-13T12:19:51.531Z,5.07
2023-01-13T12:22:18.718Z,6.10
2023-01-13T12:24:49.347Z,7.90
2023-01-13T12:27:25.677Z,5.43
2023-01-13T12:29:55.625Z,4.80
2023-01-13T12:32:33.991Z,6.13
2023-01-13T12:35:24.772Z,6.17
2023-01-13T12:37:55.412Z,4.37
2023-01-13T12:40:43.961Z,5.03
2023-01-13T12:43:37.465Z,4.50
2023-01-13T12:46:21.134Z,3.70
2023-01-13T12:48:56.535Z,4.03
2023-01-13T12:51:27.922Z,3.77
2023-01-13T12:53:58.634Z,4.50
2023-01-13T12:56:40.318Z,4.67
2023-01-13T12:59:19.925Z,3.67
2023-01-13T13:01:48.277Z,2.83
2023-01-13T13:04:19.019Z,2.37
2023-01-13T13:06:54.032Z,2.30
2023-01-13T13:09:29.351Z,2.67
2023-01-13T13:11:59.342Z,2.60
2023-01-13T13:14:38.640Z,2.70
2023-01-13T13:17:21.403Z,3.20
2023-01-13T13:19:49.644Z,3.10
2023-01-13T13:22:18.109Z,3.90
2023-01-13T13:24:51.566Z,4.40
2023-01-13T13:27:24.651Z,4.17
2023-01-13T13:29:57.828Z,4.83
2023-01-13T13:32:27.911Z,6.57
2023-01-13T13:35:04.373Z,6.00
2023-01-13T13:38:11.791Z,4.30
2023-01-13T13:41:02.173Z,5.23
2023-01-13T13:43:50.640Z,3.80
2023-01-13T13:46:45.519Z,3.00
2023-01-13T13:49:13.329Z,2.80
2023-01-13T13:51:45.149Z,2.93
2023-01-13T13:54:14.581Z,2.57
2023-01-13T13:56:44.734Z,2.97
2023-01-13T13:59:13.011Z,2.60
2023-01-13T14:01:41.612Z,2.43
2023-01-13T14:04:22.455Z,1.83
2023-01-13T14:06:53.742Z,1.83
2023-01-13T14:09:21.703Z,1.93
2023-01-13T14:11:56.748Z,2.23
2023-01-13T14:14:25.115Z,2.43
2023-01-13T14:16:52.520Z,2.50
2023-01-13T14:19:45.576Z,2.50
2023-01-13T14:22:16.362Z,2.43
2023-01-13T14:24:47.829Z,2.43
2023-01-13T14:27:16.697Z,2.57
2023-01-13T14:29:44.260Z,2.27
2023-01-13T14:32:15.575Z,2.20
2023-01-13T14:34:42.764Z,2.23
2023-01-13T14:37:26.307Z,1.80
2023-01-13T14:39:53.567Z,2.20
2023-01-13T14:42:21.596Z,1.93
2023-01-13T14:44:50.692Z,2.13
2023-01-13T14:47:18.027Z,2.10
2023-01-13T14:49:54.988Z,2.37
2023-01-13T14:52:23.799Z,2.50
2023-01-13T14:54:52.874Z,2.50
2023-01-13T14:57:31.894Z,2.43
2023-01-13T15:00:19.386Z,1.97
2023-01-13T15:02:58.733Z,1.63
2023-01-13T15:05:26.001Z,1.77
2023-01-13T15:07:56.317Z,2.27
2023-01-13T15:10:33.951Z,1.57
2023-01-13T15:13:03.070Z,2.20
2023-01-13T15:15:37.459Z,2.43
2023-01-13T15:18:14.869Z,2.27
2023-01-13T15:20:42.636Z,2.37
2023-01-13T15:23:10.157Z,1.83
2023-01-13T15:25:41.639Z,2.47
2023-01-13T15:28:15.290Z,3.00
2023-01-13T15:30:42.507Z,3.07
2023-01-13T15:33:10.234Z,3.07
2023-01-13T15:35:38.347Z,2.90
2023-01-13T15:38:10.989Z,2.50
2023-01-13T15:40:38.463Z,2.17
2023-01-13T15:43:24.615Z,2.50
2023-01-13T15:46:10.793Z,1.93
2023-01-13T15:48:38.302Z,2.90
2023-01-13T15:51:05.676Z,2.40
2023-01-13T15:53:36.848Z,2.73
2023-01-13T15:56:05.759Z,2.27
2023-01-13T15:58:32.970Z,1.80
2023-01-13T16:01:00.243Z,2.27
2023-01-13T16:03:27.884Z,2.80
2023-01-13T16:05:55.173Z,2.43
2023-01-13T16:08:23.528Z,2.10
2023-01-13T16:10:51.075Z,2.20
2023-01-13T16:13:18.519Z,2.87
2023-01-13T16:15:49.642Z,2.93
2023-01-13T16:18:24.682Z,3.73
2023-01-13T16:20:53.548Z,3.83
2023-01-13T16:23:20.976Z,3.00
2023-01-13T16:25:48.381Z,2.60
2023-01-13T16:28:26.689Z,3.30
2023-01-13T16:30:53.889Z,2.93
2023-01-13T16:33:21.134Z,3.10
2023-01-13T16:36:09.930Z,3.27
2023-01-13T16:38:37.061Z,3.20
2023-01-13T16:41:04.457Z,3.63
2023-01-13T16:43:32.392Z,4.17
2023-01-13T16:45:59.785Z,5.47
2023-01-13T16:48:27.182Z,8.77
2023-01-13T16:50:54.861Z,8.80
2023-01-13T16:53:22.220Z,8.63
2023-01-13T16:55:49.467Z,7.33
2023-01-13T16:58:18.734Z,6.63
2023-01-13T17:00:49.216Z,8.17
2023-01-13T17:03:17.184Z,10.10
2023-01-13T17:05:46.777Z,8.63
2023-01-13T17:08:20.487Z,7.03
2023-01-13T17:10:48.029Z,7.27
2023-01-13T17:13:16.947Z,6.50
2023-01-13T17:15:44.944Z,5.80
2023-01-13T17:18:13.767Z,4.37
2023-01-13T17:20:41.051Z,4.17
2023-01-13T17:23:08.490Z,5.57
2023-01-13T17:25:35.680Z,7.20
2023-01-13T17:28:02.961Z,5.93
2023-01-13T17:30:30.239Z,6.43
2023-01-13T17:32:57.714Z,4.40
2023-01-13T17:35:25.469Z,5.33
2023-01-13T17:37:53.602Z,10.03
2023-01-13T17:40:21.151Z,15.80
2023-01-13T17:42:48.424Z,10.53
2023-01-13T17:45:16.336Z,9.50
2023-01-13T17:47:43.545Z,13.47
2023-01-13T17:50:11.344Z,10.17
2023-01-13T17:52:38.588Z,8.10
2023-01-13T17:55:06.080Z,8.20
2023-01-13T17:57:33.343Z,6.87
2023-01-13T18:00:00.579Z,5.43
2023-01-13T18:02:30.176Z,8.13
2023-01-13T18:04:57.458Z,4.90
2023-01-13T18:07:24.606Z,4.53
2023-01-13T18:09:51.799Z,4.33
2023-01-13T18:12:18.997Z,4.97
2023-01-13T18:14:46.222Z,4.90
2023-01-13T18:17:13.428Z,4.77
2023-01-13T18:19:59.423Z,4.33
2023-01-13T18:22:45.585Z,4.63
2023-01-13T18:25:31.813Z,4.80
2023-01-13T18:28:02.927Z,5.40
2023-01-13T18:30:30.435Z,5.20
2023-01-13T18:32:58.120Z,5.47
2023-01-13T18:35:25.528Z,5.67
2023-01-13T18:37:52.688Z,5.13
2023-01-13T18:40:19.974Z,4.20
2023-01-13T18:42:56.173Z,4.17
2023-01-13T18:45:30.895Z,3.60
2023-01-13T18:47:59.602Z,3.77
2023-01-13T18:50:28.253Z,3.70
2023-01-13T18:52:55.568Z,4.43
2023-01-13T18:55:22.873Z,4.53
2023-01-13T18:57:50.706Z,4.63
2023-01-13T19:00:19.573Z,4.27
2023-01-13T19:02:47.471Z,4.33
2023-01-13T19:05:15.014Z,4.80
2023-01-13T19:07:46.291Z,4.53
2023-01-13T19:10:13.594Z,4.50
2023-01-13T19:12:40.822Z,4.30
2023-01-13T19:15:08.932Z,4.13
2023-01-13T19:17:36.504Z,4.53
2023-01-13T19:20:05.261Z,6.43
2023-01-13T19:22:34.127Z,4.93
2023-01-13T19:25:02.208Z,4.87
2023-01-13T19:27:29.827Z,5.07
2023-01-13T19:30:00.173Z,5.43
2023-01-13T19:32:28.694Z,4.23
2023-01-13T19:34:59.374Z,4.90
2023-01-13T19:37:34.632Z,4.33
2023-01-13T19:40:01.978Z,4.47
2023-01-13T19:42:48.087Z,4.30
2023-01-13T19:45:28.249Z,4.93
2023-01-13T19:47:57.124Z,3.77
2023-01-13T19:50:24.754Z,4.40
2023-01-13T19:52:52.312Z,4.43
2023-01-13T19:55:19.846Z,4.70
2023-01-13T19:57:47.157Z,4.10
2023-01-13T20:00:20.421Z,4.73
2023-01-13T20:02:49.529Z,4.57
2023-01-13T20:05:22.285Z,4.10
2023-01-13T20:07:49.988Z,4.70
2023-01-13T20:10:17.586Z,3.90
2023-01-13T20:12:44.820Z,3.80
2023-01-13T20:15:12.207Z,2.90
2023-01-13T20:17:40.699Z,3.07
2023-01-13T20:20:09.003Z,3.17
2023-01-13T20:22:37.496Z,2.40
2023-01-13T20:25:05.108Z,2.80
2023-01-13T20:27:32.476Z,2.20
2023-01-13T20:29:59.715Z,2.63
2023-01-13T20:32:26.928Z,1.97
2023-01-13T20:34:54.139Z,2.30
2023-01-13T20:37:21.448Z,3.40
2023-01-13T20:39:48.737Z,2.73
2023-01-13T20:42:32.096Z,2.80
2023-01-13T20:45:00.113Z,4.23
2023-01-13T20:47:28.292Z,9.30
2023-01-13T20:49:56.233Z,5.33
2023-01-13T20:52:23.691Z,2.67
2023-01-13T20:54:50.910Z,2.13
2023-01-13T20:57:18.430Z,3.73
2023-01-13T20:59:45.694Z,4.47
2023-01-13T21:02:14.415Z,2.63
2023-01-13T21:04:42.011Z,2.57
2023-01-13T21:07:09.349Z,2.17
2023-01-13T21:09:36.931Z,2.90
2023-01-13T21:12:23.204Z,3.20
2023-01-13T21:15:09.033Z,3.33
2023-01-13T21:17:55.388Z,4.13
2023-01-13T21:20:22.716Z,3.23
2023-01-13T21:22:50.113Z,2.27
2023-01-13T21:25:18.465Z,5.00
2023-01-13T21:27:45.762Z,2.50
2023-01-13T21:30:15.026Z,2.33
2023-01-13T21:32:43.124Z,1.90
2023-01-13T21:35:10.523Z,1.80
2023-01-13T21:37:38.501Z,2.23
2023-01-13T21:40:06.890Z,1.57
2023-01-13T21:42:52.961Z,1.73
2023-01-13T21:45:38.979Z,1.50
2023-01-13T21:48:07.174Z,1.60
2023-01-13T21:50:34.464Z,2.37
2023-01-13T21:53:01.699Z,1.60
2023-01-13T21:55:29.236Z,1.70
2023-01-13T21:57:57.959Z,1.50
2023-01-13T22:00:26.880Z,1.60
2023-01-13T22:02:54.347Z,1.70
2023-01-13T22:05:22.558Z,1.37
2023-01-13T22:07:50.448Z,1.70
2023-01-13T22:10:21.846Z,1.70
2023-01-13T22:12:49.610Z,1.97
2023-01-13T22:15:18.063Z,1.50
2023-01-13T22:17:48.344Z,1.60
2023-01-13T22:20:15.646Z,1.50
2023-01-13T22:22:43.100Z,1.70
2023-01-13T22:25:12.027Z,1.97
2023-01-13T22:27:40.506Z,1.70
2023-01-13T22:30:09.101Z,1.87
2023-01-13T22:32:38.512Z,2.17
2023-01-13T22:35:06.365Z,2.00
2023-01-13T22:37:33.630Z,1.97
2023-01-13T22:40:00.848Z,1.90
2023-01-13T22:42:28.068Z,1.63
2023-01-13T22:44:55.269Z,1.70
2023-01-13T22:47:22.512Z,1.97
2023-01-13T22:49:49.715Z,1.80
2023-01-13T22:52:17.749Z,1.90
2023-01-13T22:54:45.137Z,1.77
2023-01-13T22:57:12.649Z,1.40
2023-01-13T22:59:39.810Z,1.53
2023-01-13T23:02:07.084Z,1.70
2023-01-13T23:04:34.370Z,1.80
2023-01-13T23:07:01.653Z,1.70
2023-01-13T23:09:31.657Z,1.57
2023-01-13T23:11:59.526Z,2.07
2023-01-13T23:14:27.114Z,1.97
2023-01-13T23:16:54.718Z,2.07
2023-01-13T23:19:24.594Z,1.93
2023-01-13T23:21:51.797Z,1.87
2023-01-13T23:24:18.983Z,1.43
2023-01-13T23:26:46.201Z,2.07
2023-01-13T23:29:14.024Z,1.90
2023-01-13T23:31:41.206Z,1.60
2023-01-13T23:34:08.738Z,1.70
2023-01-13T23:36:41.060Z,1.93
2023-01-13T23:39:08.439Z,1.53
2023-01-13T23:41:35.741Z,1.70
2023-01-13T23:44:02.963Z,1.80
2023-01-13T23:46:32.673Z,1.67
2023-01-13T23:49:00.109Z,1.67
2023-01-13T23:51:29.970Z,1.77
2023-01-13T23:53:57.964Z,2.13
2023-01-13T23:56:26.571Z,1.30
2023-01-13T23:58:53.815Z,1.53
